Terminal Aerodrome Forecast
Issued by NWS

Home | Current Version | Previous Version | Text Only | Print | Product List | Glossary On
Versions: 1 2 3 4 5 6 7 8 9 10 11 12 13 14 15 16 17 18
000
FTUS43 KBIS 131300 AAA
TAFDIK
TAF AMD
KDIK 131343Z 1314/1412 33007KT P6SM FEW130
     FM131700 32013G24KT P6SM FEW110
     FM140200 36012KT P6SM SKC
     FM140500 36008KT P6SM FEW250=

USA.gov is the U.S. government's official web portal to all federal, state and local government web resources and services.